Time;durP1;ratioP1;P1;durP2;ratioP2;P2;SDS_P1;SDS_P2;PMS_P1;PMS_P2;Temp;Humidity;BMP_temperature;BMP_pressure;BME280_temperature;BME280_humidity;BME280_pressure;Samples;Min_cycle;Max_cycle;Signal;HPM_P1;HPM_P2
2023/01/13 05:08:10;;;;;;;22.85;4.72;;;14.00;68.80;;;;;;4854524;29;20049;-66
2023/01/13 05:10:36;;;;;;;18.80;4.82;;;14.00;68.00;;;;;;4854117;29;20058;-67
2023/01/13 05:18:30;;;;;;;13.80;3.50;;;14.00;67.70;;;;;;4837312;29;20050;-74
2023/01/13 05:20:56;;;;;;;14.75;4.07;;;14.10;67.70;;;;;;4853973;29;20362;-77
2023/01/13 05:26:09;;;;;;;;;;;14.30;68.10;;;;;;4839078;29;20049;-79
2023/01/13 05:28:35;;;;;;;28.80;4.43;;;14.50;69.70;;;;;;4853239;29;19983;-76
2023/01/13 05:31:00;;;;;;;19.08;3.17;;;14.60;69.70;;;;;;4853101;29;20077;-79
2023/01/13 05:33:32;;;;;;;17.42;3.00;;;14.60;69.70;;;;;;4862917;29;20129;-77
2023/01/13 05:36:55;;;;;;;19.13;3.85;;;14.70;70.10;;;;;;4846983;29;20493;-79
2023/01/13 05:43:18;;;;;;;15.23;3.60;;;14.70;70.30;;;;;;4776737;29;20139;-79
2023/01/13 05:45:36;;;;;;;17.55;3.35;;;14.90;70.60;;;;;;4803028;29;20459;-80
2023/01/13 05:52:12;;;;;;;18.48;4.03;;;15.00;71.50;;;;;;4848703;29;20061;-80
2023/01/13 05:58:21;;;;;;;17.40;3.60;;;15.10;71.60;;;;;;4844517;29;20044;-80
2023/01/13 06:00:50;;;;;;;17.10;3.75;;;15.20;71.60;;;;;;4828452;29;20475;-81
2023/01/13 06:03:18;;;;;;;15.82;3.50;;;15.30;71.50;;;;;;4838049;29;20110;-81
2023/01/13 06:05:45;;;;;;;15.50;3.40;;;15.40;71.40;;;;;;4846625;29;20041;-80
2023/01/13 06:08:12;;;;;;;25.13;3.80;;;15.50;71.10;;;;;;4859718;29;20081;-78
2023/01/13 06:10:37;;;;;;;19.17;3.40;;;15.60;70.90;;;;;;4830795;29;20049;-80
2023/01/13 06:13:04;;;;;;;15.60;3.45;;;15.70;70.90;;;;;;4862440;29;20045;-79
2023/01/13 06:15:31;;;;;;;19.52;3.80;;;15.80;70.80;;;;;;4846737;29;20136;-80
2023/01/13 06:17:57;;;;;;;10.35;2.75;;;15.90;70.50;;;;;;4846421;29;20445;-79
2023/01/13 06:20:23;;;;;;;15.38;3.67;;;15.90;70.30;;;;;;4831272;29;20097;-80
2023/01/13 06:22:51;;;;;;;16.20;3.47;;;16.00;70.50;;;;;;4846545;29;20104;-78
2023/01/13 06:25:42;;;;;;;19.33;3.47;;;16.00;69.80;;;;;;4846458;29;20045;-81
2023/01/13 06:28:11;;;;;;;21.80;3.65;;;16.00;68.50;;;;;;4846332;29;20112;-78
2023/01/13 06:30:45;;;;;;;25.85;3.85;;;16.00;67.70;;;;;;4862587;29;20444;-78
2023/01/13 06:33:18;;;;;;;28.67;3.95;;;16.00;67.10;;;;;;4862617;29;20053;-79
2023/01/13 06:35:50;;;;;;;22.25;4.22;;;16.00;67.60;;;;;;4861949;29;20468;-75
2023/01/13 06:38:18;;;;;;;20.15;4.15;;;16.00;67.80;;;;;;4862670;29;20048;-77
2023/01/13 06:40:44;;;;;;;13.82;3.70;;;16.10;68.00;;;;;;4846606;29;20049;-81
2023/01/13 06:43:15;;;;;;;15.93;4.03;;;15.80;64.30;;;;;;4861420;29;20581;-81
2023/01/13 06:45:46;;;;;;;20.48;3.88;;;15.90;67.30;;;;;;4845202;29;20133;-77
2023/01/13 06:48:12;;;;;;;20.63;4.10;;;15.90;67.80;;;;;;4862782;29;20052;-80
2023/01/13 06:50:38;;;;;;;22.35;4.25;;;15.90;68.10;;;;;;4862315;29;20098;-78
2023/01/13 06:53:04;;;;;;;19.75;3.35;;;15.90;68.20;;;;;;4861927;29;20081;-77
2023/01/13 06:55:29;;;;;;;17.73;3.78;;;16.00;68.30;;;;;;4862295;29;20053;-79
2023/01/13 06:57:56;;;;;;;18.73;3.72;;;16.00;68.50;;;;;;4846136;29;20067;-77
2023/01/13 07:00:24;;;;;;;17.75;3.30;;;16.00;68.50;;;;;;4862740;29;20128;-79
2023/01/13 07:02:50;;;;;;;25.85;4.70;;;15.90;68.70;;;;;;4862506;29;20049;-76
2023/01/13 07:05:16;;;;;;;21.00;3.90;;;15.90;68.50;;;;;;4861558;29;20535;-76
2023/01/13 07:07:43;;;;;;;22.75;4.00;;;15.90;68.70;;;;;;4862366;29;20141;-78
2023/01/13 07:10:12;;;;;;;22.15;4.38;;;15.90;68.90;;;;;;4862496;29;20060;-78
2023/01/13 07:15:23;;;;;;;16.48;3.55;;;15.80;68.80;;;;;;4862073;29;20073;-76
2023/01/13 07:17:49;;;;;;;10.95;2.72;;;15.70;68.70;;;;;;4863205;29;20056;-77
2023/01/13 07:20:16;;;;;;;12.27;2.22;;;15.70;68.70;;;;;;4862468;29;20045;-76
2023/01/13 07:22:42;;;;;;;9.30;2.58;;;15.70;68.70;;;;;;4862368;29;20041;-77
2023/01/13 07:25:08;;;;;;;8.88;2.30;;;15.70;68.60;;;;;;4862151;29;20458;-79
2023/01/13 07:27:34;;;;;;;9.80;2.00;;;15.70;68.60;;;;;;4862617;29;20330;-77
2023/01/13 07:29:59;;;;;;;8.40;2.58;;;15.70;68.50;;;;;;4846104;29;20137;-79
2023/01/13 07:32:25;;;;;;;11.65;2.58;;;15.60;68.30;;;;;;4862498;29;20057;-78
2023/01/13 07:34:51;;;;;;;7.97;2.05;;;15.60;68.30;;;;;;4862170;29;20041;-77
2023/01/13 07:37:17;;;;;;;8.38;1.95;;;15.60;68.10;;;;;;4846705;29;20146;-76
2023/01/13 07:39:44;;;;;;;4.90;1.45;;;15.60;68.00;;;;;;4862448;29;20068;-77
2023/01/13 07:44:53;;;;;;;;;;;15.50;67.80;;;;;;4862261;29;20053;-77
2023/01/13 07:47:22;;;;;;;8.75;1.70;;;15.50;67.90;;;;;;4863874;29;19924;-80
2023/01/13 07:49:48;;;;;;;13.73;2.05;;;15.50;68.20;;;;;;4865485;29;20090;-78
2023/01/13 07:52:14;;;;;;;10.05;1.70;;;15.50;68.50;;;;;;4865558;29;20057;-78
2023/01/13 07:54:39;;;;;;;8.02;1.70;;;15.50;68.70;;;;;;4863933;29;20068;-78
2023/01/13 07:57:05;;;;;;;10.55;2.20;;;15.40;68.60;;;;;;4864902;29;20065;-77
2023/01/13 07:59:31;;;;;;;10.73;2.42;;;15.50;68.70;;;;;;4865156;29;20051;-78
2023/01/13 08:01:56;;;;;;;12.60;2.33;;;15.40;68.60;;;;;;4849050;29;20516;-77
2023/01/13 08:04:22;;;;;;;15.20;2.53;;;15.40;68.50;;;;;;4848651;29;20049;-78
2023/01/13 08:06:48;;;;;;;9.07;2.53;;;15.40;68.40;;;;;;4862964;29;20046;-78
2023/01/13 08:09:14;;;;;;;9.93;2.08;;;15.40;68.40;;;;;;4873802;29;20060;-78
2023/01/13 08:11:39;;;;;;;10.75;2.55;;;15.40;68.80;;;;;;4872245;29;20064;-76
2023/01/13 08:14:05;;;;;;;17.70;3.13;;;15.40;68.30;;;;;;4864727;29;20078;-78
2023/01/13 08:16:32;;;;;;;14.73;2.50;;;15.40;68.40;;;;;;4847795;29;20117;-79
2023/01/13 08:18:58;;;;;;;9.70;2.58;;;15.40;68.40;;;;;;4862674;29;20055;-77
2023/01/13 08:21:24;;;;;;;8.57;2.20;;;15.40;68.40;;;;;;4872207;29;20452;-75
2023/01/13 08:23:50;;;;;;;12.00;2.67;;;15.40;68.40;;;;;;4882274;29;20116;-77
2023/01/13 08:26:17;;;;;;;13.13;2.90;;;15.40;68.40;;;;;;4861996;29;20064;-76
2023/01/13 08:28:44;;;;;;;10.07;2.33;;;15.40;68.40;;;;;;4863947;29;20088;-75
2023/01/13 08:31:12;;;;;;;11.70;2.38;;;15.40;68.50;;;;;;4864218;29;20042;-78
2023/01/13 08:33:39;;;;;;;11.18;3.10;;;15.40;68.50;;;;;;4864569;29;20114;-77
2023/01/13 08:36:08;;;;;;;13.05;2.67;;;15.40;68.50;;;;;;4864295;29;20128;-76
2023/01/13 08:38:35;;;;;;;14.07;2.92;;;15.40;68.40;;;;;;4867428;29;20084;-77
2023/01/13 08:41:11;;;;;;;9.20;3.05;;;15.40;68.50;;;;;;4848508;29;20528;-77
2023/01/13 08:43:36;;;;;;;11.00;2.88;;;15.40;68.50;;;;;;4864615;29;20479;-76
2023/01/13 08:46:05;;;;;;;10.40;2.35;;;15.40;68.40;;;;;;4851726;29;20049;-77
2023/01/13 08:48:31;;;;;;;12.13;2.85;;;15.40;68.30;;;;;;4845039;29;20061;-76
2023/01/13 08:51:06;;;;;;;10.98;2.75;;;15.40;68.00;;;;;;4847716;29;20104;-77
2023/01/13 08:53:31;;;;;;;12.85;3.28;;;15.30;68.00;;;;;;4847823;29;20050;-78
2023/01/13 08:55:57;;;;;;;10.80;3.22;;;15.30;68.00;;;;;;4863581;29;20110;-74
2023/01/13 08:58:23;;;;;;;12.82;2.67;;;15.30;68.00;;;;;;4863067;29;20053;-77
2023/01/13 09:00:48;;;;;;;12.20;2.83;;;15.30;68.30;;;;;;4847551;29;20425;-76
2023/01/13 09:03:14;;;;;;;12.32;2.80;;;15.30;68.40;;;;;;4863667;29;20489;-76
2023/01/13 09:05:40;;;;;;;9.75;2.80;;;15.30;68.50;;;;;;4865776;29;20057;-76
2023/01/13 09:08:06;;;;;;;11.63;2.78;;;15.30;68.50;;;;;;4871593;29;20388;-79
2023/01/13 09:10:32;;;;;;;11.43;2.90;;;15.30;68.50;;;;;;4863933;29;20077;-77
2023/01/13 09:13:13;;;;;;;8.55;2.85;;;15.30;68.50;;;;;;4863790;29;20124;-78
2023/01/13 09:15:44;;;;;;;12.75;2.85;;;15.30;68.60;;;;;;4864005;29;20104;-78
2023/01/13 09:18:11;;;;;;;11.48;3.15;;;15.30;68.50;;;;;;4863585;29;20105;-81
2023/01/13 09:20:37;;;;;;;11.98;2.92;;;15.20;68.10;;;;;;4864192;29;20365;-79
2023/01/13 09:23:04;;;;;;;11.70;2.70;;;15.30;67.70;;;;;;4847273;29;20079;-78
2023/01/13 09:25:30;;;;;;;7.60;2.58;;;15.20;67.20;;;;;;4863907;29;20101;-78
2023/01/13 09:27:56;;;;;;;12.90;2.38;;;15.20;67.10;;;;;;4863353;29;20050;-77
2023/01/13 09:30:22;;;;;;;8.35;2.10;;;15.20;66.90;;;;;;4863940;29;20045;-77
2023/01/13 09:32:48;;;;;;;9.15;2.72;;;15.30;66.80;;;;;;4863430;29;20202;-76
2023/01/13 09:35:16;;;;;;;8.65;2.53;;;15.40;67.00;;;;;;4863492;29;20132;-77
2023/01/13 09:37:42;;;;;;;6.22;2.05;;;15.50;66.90;;;;;;4847455;29;20560;-78
2023/01/13 09:40:21;;;;;;;11.43;2.83;;;15.60;66.90;;;;;;4863474;29;20090;-77
2023/01/13 09:46:42;;;;;;;9.57;2.55;;;15.70;67.00;;;;;;4847406;29;20485;-77
2023/01/13 09:48:58;;;;;;;11.15;2.53;;;15.70;66.80;;;;;;4881676;29;20053;-77
2023/01/13 09:51:32;;;;;;;10.23;3.05;;;15.80;66.90;;;;;;4881681;29;20099;-78
2023/01/13 09:54:10;;;;;;;11.65;3.03;;;15.80;66.90;;;;;;4879371;29;20077;-78
2023/01/13 09:56:35;;;;;;;10.30;3.03;;;15.80;67.00;;;;;;4863253;29;20136;-78
2023/01/13 09:59:01;;;;;;;13.10;2.60;;;15.80;67.00;;;;;;4863123;29;20129;-78
2023/01/13 10:01:38;;;;;;;10.00;2.05;;;15.80;67.00;;;;;;4846792;29;20058;-77
2023/01/13 10:04:10;;;;;;;11.50;2.40;;;15.90;66.90;;;;;;4862966;29;20053;-77
2023/01/13 10:06:41;;;;;;;8.75;2.67;;;15.90;66.90;;;;;;4862975;29;20097;-78
2023/01/13 10:09:21;;;;;;;8.00;2.20;;;16.00;67.00;;;;;;4862234;29;20072;-77
2023/01/13 10:14:51;;;;;;;8.90;2.38;;;16.10;66.80;;;;;;4862476;29;20460;-77
2023/01/13 10:17:34;;;;;;;9.23;2.65;;;16.20;66.60;;;;;;4863508;29;20401;-78
2023/01/13 10:20:14;;;;;;;10.88;2.63;;;16.20;66.60;;;;;;4831771;29;20053;-77
2023/01/13 10:23:13;;;;;;;9.82;2.08;;;16.30;66.50;;;;;;4862840;29;20117;-78
2023/01/13 10:25:53;;;;;;;9.30;2.55;;;16.40;66.00;;;;;;4862202;29;20068;-78
2023/01/13 10:28:18;;;;;;;10.02;2.60;;;16.50;66.00;;;;;;4863424;29;20136;-77
2023/01/13 10:30:46;;;;;;;13.55;2.72;;;16.50;65.90;;;;;;4847238;29;20517;-78
2023/01/13 10:33:16;;;;;;;8.82;2.30;;;16.50;65.90;;;;;;4862742;29;20054;-79
2023/01/13 10:35:59;;;;;;;8.07;2.42;;;16.50;65.80;;;;;;4861946;29;20141;-78
2023/01/13 10:38:42;;;;;;;9.43;2.20;;;16.50;65.60;;;;;;4845801;29;20061;-77
2023/01/13 10:41:14;;;;;;;10.18;2.92;;;16.50;65.70;;;;;;4862427;29;20041;-77
2023/01/13 10:43:42;;;;;;;9.10;1.92;;;16.50;65.60;;;;;;4846276;29;20061;-77
2023/01/13 10:46:16;;;;;;;8.85;2.15;;;16.50;65.50;;;;;;4862027;29;20041;-77
2023/01/13 10:48:57;;;;;;;9.48;2.40;;;16.50;65.40;;;;;;4846632;29;20050;-76
2023/01/13 10:51:41;;;;;;;13.27;2.50;;;16.50;65.60;;;;;;4862522;29;20195;-79
2023/01/13 10:54:18;;;;;;;11.52;2.58;;;16.50;65.50;;;;;;4861980;29;20049;-76
2023/01/13 10:56:45;;;;;;;9.45;2.15;;;16.50;65.60;;;;;;4840241;29;20076;-79
2023/01/13 10:59:27;;;;;;;7.18;2.35;;;16.40;65.50;;;;;;4862959;29;20418;-76
2023/01/13 11:02:16;;;;;;;10.80;2.90;;;16.40;65.40;;;;;;4862257;29;20053;-78
2023/01/13 11:05:01;;;;;;;9.10;2.30;;;16.50;65.60;;;;;;4862463;29;20057;-76
2023/01/13 11:07:56;;;;;;;8.77;2.83;;;16.40;65.60;;;;;;4846115;29;20057;-77
2023/01/13 11:10:26;;;;;;;8.43;2.83;;;16.50;65.70;;;;;;4844632;29;20057;-78
2023/01/13 11:13:20;;;;;;;8.45;2.47;;;16.40;66.00;;;;;;4861923;29;20141;-77
2023/01/13 11:15:57;;;;;;;7.38;2.25;;;16.40;66.00;;;;;;4862073;29;20457;-75
2023/01/13 11:18:33;;;;;;;8.15;2.78;;;16.50;66.30;;;;;;4862589;29;20381;-77
2023/01/13 11:21:03;;;;;;;9.13;2.03;;;16.40;66.40;;;;;;4863200;29;20042;-76
2023/01/13 11:23:39;;;;;;;10.95;2.72;;;16.50;66.40;;;;;;4849694;29;20441;-75
2023/01/13 11:26:25;;;;;;;13.15;2.92;;;16.50;66.10;;;;;;4865801;29;20057;-78
2023/01/13 11:29:04;;;;;;;7.90;1.98;;;16.40;66.30;;;;;;4865579;29;20056;-78
2023/01/13 11:31:40;;;;;;;8.02;2.20;;;16.40;66.40;;;;;;4865957;29;20053;-76
2023/01/13 11:34:31;;;;;;;8.88;2.33;;;16.50;66.60;;;;;;4865143;29;20045;-73
2023/01/13 11:37:00;;;;;;;12.38;2.78;;;16.50;66.60;;;;;;4865590;29;20065;-77
2023/01/13 11:39:37;;;;;;;12.38;2.70;;;16.50;66.60;;;;;;4849173;29;20049;-78
2023/01/13 11:42:23;;;;;;;10.15;2.78;;;16.40;66.70;;;;;;4865393;29;20425;-77
2023/01/13 11:45:05;;;;;;;10.63;2.40;;;16.40;66.70;;;;;;4864957;29;20049;-80
2023/01/13 11:47:33;;;;;;;9.43;2.72;;;16.40;66.60;;;;;;4865257;29;20098;-77
2023/01/13 11:50:00;;;;;;;9.82;1.95;;;16.40;66.60;;;;;;4865546;29;20049;-77
2023/01/13 11:52:42;;;;;;;9.82;2.70;;;16.40;66.60;;;;;;4865043;29;20076;-76
2023/01/13 11:55:22;;;;;;;11.55;2.63;;;16.30;66.50;;;;;;4865349;29;20049;-76
2023/01/13 11:58:24;;;;;;;14.30;3.28;;;16.30;66.60;;;;;;4848891;29;20121;-79
2023/01/13 12:00:53;;;;;;;11.63;3.33;;;16.30;65.70;;;;;;4843822;29;20502;-74
2023/01/13 12:03:52;;;;;;;12.50;3.60;;;16.20;65.50;;;;;;4864605;29;20482;-77
2023/01/13 12:06:36;;;;;;;12.25;3.13;;;16.20;64.90;;;;;;4865174;29;20053;-77
2023/01/13 12:09:14;;;;;;;14.48;2.72;;;16.20;65.00;;;;;;4863871;29;20183;-77
2023/01/13 12:12:18;;;;;;;13.60;2.78;;;16.10;65.30;;;;;;4865275;29;20417;-74
2023/01/13 12:15:05;;;;;;;12.82;2.80;;;16.10;65.40;;;;;;4865416;29;20057;-75
2023/01/13 12:17:56;;;;;;;16.73;2.38;;;16.10;65.60;;;;;;4864338;29;20069;-77
2023/01/13 12:21:00;;;;;;;15.02;2.53;;;16.10;65.80;;;;;;4849478;29;20081;-77
2023/01/13 12:23:29;;;;;;;17.33;3.47;;;16.00;65.90;;;;;;4864912;29;20057;-77
2023/01/13 12:26:05;;;;;;;10.45;2.53;;;16.00;66.20;;;;;;4848756;29;20376;-76
2023/01/13 12:28:53;;;;;;;12.18;3.22;;;16.00;66.50;;;;;;4848496;29;20060;-78
2023/01/13 12:31:20;;;;;;;7.38;1.77;;;16.00;66.60;;;;;;4839496;29;20076;-77
2023/01/13 12:34:40;;;;;;;11.80;2.10;;;16.00;66.70;;;;;;4864070;29;20052;-78
2023/01/13 12:37:14;;;;;;;13.25;2.55;;;16.00;66.70;;;;;;4792846;29;20078;-75
2023/01/13 12:39:55;;;;;;;8.55;1.83;;;15.90;66.50;;;;;;4854840;29;20123;-77
2023/01/13 12:45:10;;;;;;;11.10;1.70;;;15.90;66.10;;;;;;4863606;29;20050;-78
2023/01/13 12:47:44;;;;;;;11.63;2.22;;;15.90;65.60;;;;;;4846281;29;20053;-75
2023/01/13 12:50:25;;;;;;;10.70;2.25;;;15.90;65.00;;;;;;4847117;29;20124;-73
2023/01/13 12:52:56;;;;;;;8.75;2.42;;;15.90;64.90;;;;;;4863380;29;20156;-77
2023/01/13 12:55:22;;;;;;;9.77;3.38;;;15.90;64.70;;;;;;4864008;29;20045;-76
2023/01/13 12:58:16;;;;;;;11.15;2.58;;;15.90;64.60;;;;;;4847892;29;20072;-76
2023/01/13 13:00:43;;;;;;;8.77;2.30;;;15.90;64.80;;;;;;4845548;29;20061;-78
2023/01/13 13:03:18;;;;;;;12.82;2.33;;;15.80;64.90;;;;;;4848036;29;20061;-76
2023/01/13 13:05:55;;;;;;;8.95;1.60;;;15.80;65.00;;;;;;4864348;29;20101;-79
2023/01/13 13:08:29;;;;;;;12.07;3.33;;;15.80;65.00;;;;;;4863914;29;20057;-75
2023/01/13 13:14:35;;;;;;;8.70;2.35;;;15.80;65.30;;;;;;4852901;29;20097;-78
2023/01/13 13:17:00;;;;;;;8.10;2.13;;;15.80;65.30;;;;;;4863957;29;20049;-76
2023/01/13 13:19:32;;;;;;;11.98;2.42;;;15.70;65.40;;;;;;4863687;29;20116;-77
2023/01/13 13:22:13;;;;;;;10.63;2.45;;;15.70;65.60;;;;;;4864119;29;20085;-77
2023/01/13 13:24:40;;;;;;;7.57;1.95;;;15.70;65.50;;;;;;4863996;29;20057;-77
2023/01/13 13:27:24;;;;;;;8.45;3.08;;;15.70;65.70;;;;;;4864108;29;20057;-78
2023/01/13 13:29:52;;;;;;;8.85;1.70;;;15.70;65.80;;;;;;4863690;29;20049;-77
2023/01/13 13:32:28;;;;;;;10.73;2.42;;;15.70;66.00;;;;;;4847278;29;20053;-75
2023/01/13 13:35:32;;;;;;;8.93;2.08;;;15.60;65.80;;;;;;4864020;29;20060;-76
2023/01/13 13:47:05;;;;;;;10.05;1.73;;;15.60;66.00;;;;;;4863248;29;20057;-79
2023/01/13 13:49:53;;;;;;;9.05;2.22;;;15.50;66.10;;;;;;4846947;29;20132;-77
2023/01/13 13:52:50;;;;;;;11.15;2.03;;;15.50;66.10;;;;;;4846988;29;20485;-77
2023/01/13 13:55:22;;;;;;;8.48;2.10;;;15.50;66.20;;;;;;4862952;29;20073;-78
2023/01/13 13:57:54;;;;;;;9.32;2.38;;;15.50;66.10;;;;;;4846942;29;20046;-77
2023/01/13 14:00:49;;;;;;;6.82;2.08;;;15.40;65.90;;;;;;4862894;29;20055;-76
2023/01/13 14:03:25;;;;;;;9.98;2.05;;;15.50;66.10;;;;;;4834651;29;20061;-77
2023/01/13 14:06:00;;;;;;;13.50;2.10;;;15.40;66.20;;;;;;4863730;29;20063;-78
2023/01/13 14:08:28;;;;;;;7.10;1.88;;;15.40;66.10;;;;;;4862636;29;20133;-76
2023/01/13 14:10:54;;;;;;;7.75;1.58;;;15.40;66.20;;;;;;4831745;29;20057;-78
2023/01/13 14:13:23;;;;;;;10.05;1.75;;;15.40;66.20;;;;;;4863425;29;20053;-77
2023/01/13 14:16:03;;;;;;;7.07;1.95;;;15.40;66.10;;;;;;4846805;29;20109;-76
2023/01/13 14:18:44;;;;;;;6.72;1.88;;;15.40;66.10;;;;;;4862254;29;20485;-77
2023/01/13 14:21:23;;;;;;;6.85;1.83;;;15.30;66.00;;;;;;4863804;29;20045;-78
2023/01/13 14:23:55;;;;;;;6.15;1.85;;;15.30;66.10;;;;;;4863109;29;20042;-79
2023/01/13 14:26:29;;;;;;;6.03;1.83;;;15.30;66.10;;;;;;4863015;29;20057;-79
2023/01/13 14:28:57;;;;;;;6.20;1.63;;;15.30;66.00;;;;;;4862385;29;20065;-76
2023/01/13 14:31:23;;;;;;;6.47;1.92;;;15.30;66.10;;;;;;4846606;29;20114;-77
2023/01/13 14:33:53;;;;;;;4.78;1.55;;;15.30;66.10;;;;;;4846120;29;20361;-77
2023/01/13 14:36:18;;;;;;;9.48;2.30;;;15.30;66.10;;;;;;4846641;29;20113;-77
2023/01/13 14:38:47;;;;;;;6.40;2.25;;;15.30;66.10;;;;;;4862442;29;20057;-77
2023/01/13 14:41:21;;;;;;;7.38;2.35;;;15.30;66.00;;;;;;4863410;29;20454;-77
2023/01/13 14:43:48;;;;;;;7.90;1.90;;;15.30;66.00;;;;;;4862473;29;20449;-77
2023/01/13 14:46:16;;;;;;;6.25;1.50;;;15.20;65.90;;;;;;4862560;29;20121;-77
2023/01/13 14:48:46;;;;;;;9.30;2.17;;;15.20;66.60;;;;;;4862322;29;20472;-76
2023/01/13 14:51:20;;;;;;;8.38;2.00;;;15.20;66.00;;;;;;4862689;29;20050;-77
2023/01/13 14:53:47;;;;;;;5.95;1.50;;;15.20;65.90;;;;;;4863493;29;20133;-76
2023/01/13 14:56:42;;;;;;;9.32;2.17;;;15.20;65.90;;;;;;4863928;29;20050;-77
2023/01/13 14:59:56;;;;;;;6.07;1.63;;;15.20;66.00;;;;;;4866205;29;20129;-77
2023/01/13 15:02:31;;;;;;;6.23;1.80;;;15.20;65.80;;;;;;4853965;29;20061;-75
2023/01/13 15:05:21;;;;;;;7.00;2.17;;;15.10;65.90;;;;;;4866341;29;20132;-78
2023/01/13 15:08:05;;;;;;;5.97;1.58;;;15.10;65.80;;;;;;4865719;29;20200;-77
2023/01/13 15:10:37;;;;;;;5.72;2.03;;;15.10;65.70;;;;;;4866467;29;20129;-78
2023/01/13 15:13:05;;;;;;;7.70;2.10;;;15.10;65.60;;;;;;4834750;29;20053;-77
2023/01/13 15:15:32;;;;;;;8.45;1.50;;;15.10;65.60;;;;;;4866346;29;20054;-77
2023/01/13 15:18:09;;;;;;;8.95;1.98;;;15.10;65.70;;;;;;4865694;29;20064;-79
2023/01/13 15:20:35;;;;;;;7.97;2.05;;;15.10;65.70;;;;;;4865573;29;20056;-79
2023/01/13 15:23:00;;;;;;;5.32;1.75;;;15.10;65.80;;;;;;4866198;29;20050;-78
2023/01/13 15:25:32;;;;;;;5.88;1.63;;;15.00;65.60;;;;;;4849909;29;20480;-80
2023/01/13 15:27:57;;;;;;;10.75;2.20;;;15.10;65.40;;;;;;4866495;29;20056;-75
2023/01/13 15:30:25;;;;;;;14.43;2.35;;;15.00;65.10;;;;;;4865428;29;20539;-73
2023/01/13 15:32:53;;;;;;;12.07;2.28;;;15.00;64.90;;;;;;4865901;29;20076;-72
2023/01/13 15:35:20;;;;;;;10.85;2.15;;;15.00;65.00;;;;;;4865839;29;20100;-72
2023/01/13 15:37:47;;;;;;;10.15;2.83;;;15.00;65.10;;;;;;4865906;29;20357;-71
2023/01/13 15:40:16;;;;;;;14.70;3.00;;;15.00;65.20;;;;;;4865438;29;20060;-72
2023/01/13 15:48:10;;;;;;;10.95;2.28;;;15.30;65.70;;;;;;4865076;29;19924;-76
2023/01/13 15:50:38;;;;;;;17.85;3.40;;;15.30;65.80;;;;;;4865168;29;20068;-75
2023/01/13 15:53:04;;;;;;;12.88;3.28;;;15.40;66.00;;;;;;4865149;29;20057;-76
2023/01/13 15:55:33;;;;;;;22.95;3.47;;;15.40;66.30;;;;;;4865394;29;20033;-77
2023/01/13 15:58:00;;;;;;;20.13;3.50;;;15.50;66.40;;;;;;4864928;29;20125;-78
2023/01/13 16:00:26;;;;;;;19.27;3.20;;;15.50;66.60;;;;;;4865020;29;20049;-79
2023/01/13 16:02:52;;;;;;;18.35;3.20;;;15.60;67.40;;;;;;4864524;29;20117;-78
2023/01/13 16:05:18;;;;;;;23.63;3.55;;;15.60;67.80;;;;;;4863964;29;20441;-78
2023/01/13 16:07:44;;;;;;;19.88;3.83;;;15.70;68.00;;;;;;4861895;29;20065;-75
2023/01/13 16:10:18;;;;;;;21.10;3.25;;;15.70;68.10;;;;;;4863898;29;20113;-77
2023/01/13 16:12:44;;;;;;;15.73;2.50;;;15.70;68.50;;;;;;4864798;29;20076;-76
2023/01/13 16:15:15;;;;;;;19.90;4.75;;;15.70;68.70;;;;;;4864565;29;20054;-75
2023/01/13 16:17:43;;;;;;;15.57;2.67;;;15.70;69.20;;;;;;4864889;29;20100;-75
2023/01/13 16:20:17;;;;;;;17.33;2.70;;;15.80;69.50;;;;;;4864726;29;20045;-75
2023/01/13 16:22:44;;;;;;;;;;;15.80;70.10;;;;;;4865154;29;20049;-76
2023/01/13 16:25:23;;;;;;;15.13;2.88;;;16.00;70.50;;;;;;4848135;29;19975;-74
2023/01/13 16:27:49;;;;;;;14.55;2.65;;;16.00;70.40;;;;;;4863966;29;20061;-74
2023/01/13 16:30:28;;;;;;;23.70;2.85;;;16.10;70.10;;;;;;4849403;29;20053;-75
2023/01/13 16:32:54;;;;;;;18.33;2.65;;;16.20;70.20;;;;;;4864604;29;20120;-74
2023/01/13 16:35:21;;;;;;;20.17;3.22;;;16.20;70.00;;;;;;4848570;29;20465;-75
2023/01/13 16:37:47;;;;;;;12.15;2.22;;;16.20;69.90;;;;;;4864635;29;20050;-75
2023/01/13 16:40:25;;;;;;;15.27;2.78;;;16.20;69.70;;;;;;4864489;29;20053;-76
2023/01/13 16:42:51;;;;;;;23.70;2.30;;;16.30;69.80;;;;;;4848435;29;20369;-76
2023/01/13 16:45:18;;;;;;;19.88;3.00;;;16.40;69.70;;;;;;4848276;29;20057;-77
2023/01/13 16:47:44;;;;;;;20.90;3.20;;;16.40;69.40;;;;;;4864547;29;20468;-73
2023/01/13 16:50:39;;;;;;;15.20;3.10;;;16.40;69.50;;;;;;4864308;29;20057;-76
2023/01/13 16:53:10;;;;;;;21.40;3.20;;;16.40;69.60;;;;;;4847469;29;20099;-73
2023/01/13 16:55:37;;;;;;;14.48;2.55;;;16.30;69.30;;;;;;4862960;29;20053;-74
2023/01/13 16:58:03;;;;;;;21.60;3.00;;;16.40;69.30;;;;;;4846466;29;20450;-74
2023/01/13 17:00:30;;;;;;;15.45;2.58;;;16.30;69.00;;;;;;4862830;29;20053;-73
2023/01/13 17:03:00;;;;;;;15.70;2.75;;;16.30;68.90;;;;;;4863460;29;20076;-71
2023/01/13 17:05:27;;;;;;;11.57;3.03;;;16.20;68.70;;;;;;4863534;29;20129;-76
2023/01/13 17:07:53;;;;;;;16.00;2.75;;;16.20;68.70;;;;;;4863354;29;20422;-76
2023/01/13 17:10:23;;;;;;;16.38;2.70;;;16.20;68.70;;;;;;4863546;29;20141;-74
2023/01/13 17:12:49;;;;;;;16.00;2.40;;;16.20;68.70;;;;;;4863898;29;20068;-75
2023/01/13 17:15:18;;;;;;;18.45;2.75;;;16.10;68.70;;;;;;4863746;29;20046;-75
2023/01/13 17:17:50;;;;;;;14.30;3.00;;;16.10;68.70;;;;;;4863730;29;20438;-74
2023/01/13 17:20:17;;;;;;;21.00;3.10;;;16.10;68.70;;;;;;4843808;29;20057;-75
2023/01/13 17:22:43;;;;;;;19.98;3.13;;;16.10;68.70;;;;;;4862026;29;20057;-76
2023/01/13 18:44:51;;;;;;;11.50;3.08;;;15.00;66.00;;;;;;5858058;23;20020;-77
2023/01/13 18:47:18;;;;;;;12.77;2.33;;;15.00;66.40;;;;;;4899214;29;20072;-75
2023/01/13 18:49:44;;;;;;;18.98;3.35;;;15.00;66.50;;;;;;4900042;29;20056;-76
2023/01/13 18:52:10;;;;;;;10.27;2.53;;;15.00;66.70;;;;;;4898882;29;20064;-75
2023/01/13 18:54:36;;;;;;;9.73;2.80;;;15.00;66.90;;;;;;4899017;29;20041;-74
2023/01/13 18:57:02;;;;;;;10.15;2.55;;;15.00;67.20;;;;;;4899649;29;20055;-75
2023/01/13 18:59:29;;;;;;;10.13;2.83;;;15.00;67.30;;;;;;4899664;29;20056;-73
2023/01/13 19:01:54;;;;;;;11.40;2.80;;;14.90;67.60;;;;;;4899884;29;20060;-79
2023/01/13 19:04:20;;;;;;;16.40;3.25;;;14.90;67.90;;;;;;4899181;29;20052;-80
2023/01/13 19:06:49;;;;;;;18.88;3.35;;;14.90;68.10;;;;;;4898837;29;20375;-81
2023/01/13 19:09:27;;;;;;;13.43;2.90;;;14.90;68.40;;;;;;4899775;29;20123;-75
2023/01/13 19:11:54;;;;;;;14.77;3.70;;;14.80;68.70;;;;;;4883051;29;20112;-78
2023/01/13 19:14:41;;;;;;;16.85;3.33;;;14.80;69.20;;;;;;4883135;29;20416;-79
2023/01/13 19:17:09;;;;;;;16.88;3.25;;;14.80;69.30;;;;;;4899736;29;20048;-77
2023/01/13 19:19:47;;;;;;;10.48;2.50;;;14.80;69.60;;;;;;4898417;29;20054;-76
2023/01/13 19:22:18;;;;;;;9.55;2.45;;;14.70;69.70;;;;;;4899464;29;20058;-76
2023/01/13 19:24:44;;;;;;;9.32;2.65;;;14.70;70.10;;;;;;4899530;29;20052;-74
2023/01/13 19:27:13;;;;;;;11.82;2.60;;;14.70;70.10;;;;;;4899083;29;20041;-73
2023/01/13 19:29:39;;;;;;;11.10;2.92;;;14.80;70.00;;;;;;4899561;29;20120;-77
2023/01/13 19:32:06;;;;;;;13.45;3.03;;;14.80;70.20;;;;;;4900224;29;20047;-78
2023/01/13 19:34:31;;;;;;;9.75;2.55;;;14.80;70.20;;;;;;4898935;29;20045;-79
2023/01/13 19:36:57;;;;;;;16.00;2.70;;;14.80;70.20;;;;;;4898957;29;20048;-78
2023/01/13 19:39:24;;;;;;;11.38;2.25;;;14.80;70.10;;;;;;4899249;29;20053;-77
2023/01/13 19:47:18;;;;;;;11.23;2.10;;;14.90;70.00;;;;;;4899142;29;20092;-77
2023/01/13 19:49:44;;;;;;;10.55;2.15;;;14.90;70.00;;;;;;4902871;29;20059;-76
2023/01/13 19:52:10;;;;;;;9.10;2.17;;;15.00;70.00;;;;;;4890302;29;20049;-77
2023/01/13 19:54:36;;;;;;;7.50;2.38;;;15.00;69.90;;;;;;4867743;29;20045;-76
2023/01/13 19:57:03;;;;;;;7.40;2.28;;;15.00;69.90;;;;;;4883931;29;20055;-77
2023/01/13 19:59:28;;;;;;;7.80;2.10;;;15.00;69.80;;;;;;4884161;29;20330;-77
2023/01/13 20:01:56;;;;;;;8.23;2.22;;;15.00;69.80;;;;;;4887419;29;20127;-77
2023/01/13 20:04:28;;;;;;;8.48;2.45;;;15.00;69.70;;;;;;4889703;29;20471;-76
2023/01/13 20:06:55;;;;;;;7.18;2.08;;;15.00;69.60;;;;;;4883987;29;20140;-78
2023/01/13 20:09:21;;;;;;;9.40;2.05;;;15.00;69.60;;;;;;4884418;29;20120;-77
2023/01/13 20:11:53;;;;;;;8.25;1.90;;;15.00;69.70;;;;;;4891466;29;20060;-76
2023/01/13 20:14:19;;;;;;;9.38;2.97;;;15.00;69.70;;;;;;4902257;29;20397;-73
2023/01/13 20:16:45;;;;;;;10.98;1.60;;;15.00;69.50;;;;;;4902008;29;20044;-72
2023/01/13 20:19:10;;;;;;;7.03;1.83;;;15.00;68.80;;;;;;4902622;29;20069;-75
2023/01/13 20:21:38;;;;;;;10.55;3.08;;;15.00;68.00;;;;;;4902316;29;20356;-78
2023/01/13 20:24:04;;;;;;;8.02;2.05;;;15.00;67.60;;;;;;4902555;29;20060;-79
2023/01/13 20:26:30;;;;;;;11.57;2.67;;;15.00;67.50;;;;;;4901323;29;20108;-77
2023/01/13 20:28:56;;;;;;;8.05;2.38;;;14.90;67.60;;;;;;4902066;29;20052;-78